createdAt,value
2023-04-06T00:02:06.759Z,86.74
2023-04-06T00:04:34.435Z,87.22
2023-04-06T00:07:04.484Z,87.46
2023-04-06T00:09:32.093Z,87.71
2023-04-06T00:11:59.748Z,87.79
2023-04-06T00:14:27.393Z,87.70
2023-04-06T00:16:55.039Z,87.95
2023-04-06T00:19:22.779Z,87.95
2023-04-06T00:21:50.487Z,88.38
2023-04-06T00:24:19.527Z,88.19
2023-04-06T00:26:47.152Z,87.89
2023-04-06T00:29:14.853Z,88.64
2023-04-06T00:31:43.033Z,88.34
2023-04-06T00:34:12.214Z,88.46
2023-04-06T00:36:39.840Z,87.96
2023-04-06T00:39:07.742Z,88.25
2023-04-06T00:41:36.966Z,88.39
2023-04-06T00:44:04.598Z,89.10
2023-04-06T00:46:32.596Z,88.69
2023-04-06T00:49:00.293Z,89.64
2023-04-06T00:51:28.134Z,89.20
2023-04-06T00:53:55.946Z,89.17
2023-04-06T00:56:27.199Z,89.23
2023-04-06T00:58:58.638Z,89.53
2023-04-06T01:01:26.777Z,89.80
2023-04-06T01:03:57.588Z,89.74
2023-04-06T01:06:25.200Z,90.49
2023-04-06T01:08:59.434Z,90.70
2023-04-06T01:11:28.806Z,90.63
2023-04-06T01:13:57.890Z,90.77
2023-04-06T01:16:44.498Z,90.62
2023-04-06T01:19:17.804Z,91.16
2023-04-06T01:21:50.474Z,90.91
2023-04-06T01:24:22.864Z,91.74
2023-04-06T01:27:19.637Z,92.02
2023-04-06T01:30:08.846Z,91.66
2023-04-06T01:32:47.665Z,92.20
2023-04-06T01:35:20.601Z,92.02
2023-04-06T01:37:59.212Z,92.40
2023-04-06T01:40:33.226Z,92.63
2023-04-06T01:43:01.012Z,92.78
2023-04-06T01:45:35.413Z,92.64
2023-04-06T01:48:13.697Z,93.04
2023-04-06T01:50:41.362Z,94.00
2023-04-06T01:53:11.520Z,93.72
2023-04-06T01:55:42.146Z,93.66
2023-04-06T01:58:24.032Z,93.94
2023-04-06T02:00:51.764Z,93.85
2023-04-06T02:03:19.685Z,93.97
2023-04-06T02:05:49.523Z,95.08
2023-04-06T02:08:24.181Z,95.32
2023-04-06T02:10:53.341Z,95.28
2023-04-06T02:13:31.536Z,96.36
2023-04-06T02:15:59.745Z,96.24
2023-04-06T02:18:29.849Z,96.20
2023-04-06T02:20:57.756Z,96.35
2023-04-06T02:23:25.525Z,96.06
2023-04-06T02:25:54.736Z,97.05
2023-04-06T02:28:22.423Z,96.77
2023-04-06T02:30:50.046Z,96.72
2023-04-06T02:33:18.651Z,96.85
2023-04-06T02:35:48.395Z,96.98
2023-04-06T02:38:16.185Z,97.44
2023-04-06T02:40:43.882Z,96.92
2023-04-06T02:43:21.565Z,97.17
2023-04-06T02:45:52.139Z,96.90
2023-04-06T02:48:21.628Z,96.99
2023-04-06T02:50:49.296Z,97.01
2023-04-06T02:53:17.311Z,97.45
2023-04-06T02:55:44.934Z,97.14
2023-04-06T02:58:12.654Z,97.62
2023-04-06T03:00:48.977Z,97.36
2023-04-06T03:03:16.687Z,97.33
2023-04-06T03:05:46.284Z,97.28
2023-04-06T03:08:15.540Z,96.93
2023-04-06T03:10:45.534Z,97.93
2023-04-06T03:13:13.932Z,97.65
2023-04-06T03:15:58.271Z,97.25
2023-04-06T03:18:27.105Z,97.29
2023-04-06T03:20:56.967Z,97.31
2023-04-06T03:23:33.930Z,97.64
2023-04-06T03:26:03.386Z,97.56
2023-04-06T03:28:31.246Z,97.28
2023-04-06T03:31:03.360Z,97.31
2023-04-06T03:33:45.513Z,97.71
2023-04-06T03:36:20.340Z,97.81
2023-04-06T03:38:49.153Z,98.51
2023-04-06T03:41:16.861Z,98.18
2023-04-06T03:43:51.663Z,98.39
2023-04-06T03:46:20.763Z,97.41
2023-04-06T03:48:51.820Z,97.49
2023-04-06T03:51:21.893Z,97.34
2023-04-06T03:53:49.638Z,96.92
2023-04-06T03:56:17.269Z,97.17
2023-04-06T03:58:46.131Z,97.45
2023-04-06T04:01:14.242Z,97.66
2023-04-06T04:03:43.293Z,97.12
2023-04-06T04:06:11.026Z,97.10
2023-04-06T04:08:41.161Z,97.56
2023-04-06T04:11:09.446Z,97.81
2023-04-06T04:13:37.265Z,97.85
2023-04-06T04:16:07.399Z,97.50
2023-04-06T04:18:35.061Z,97.61
2023-04-06T04:21:04.073Z,97.67
2023-04-06T04:23:32.165Z,97.19
2023-04-06T04:25:59.848Z,97.87
2023-04-06T04:28:27.483Z,97.80
2023-04-06T04:30:57.009Z,97.50
2023-04-06T04:33:25.100Z,97.43
2023-04-06T04:35:56.329Z,98.11
2023-04-06T04:38:27.852Z,97.81
2023-04-06T04:40:57.952Z,97.85
2023-04-06T04:43:25.952Z,97.73
2023-04-06T04:45:53.682Z,98.06
2023-04-06T04:48:40.228Z,98.55
2023-04-06T04:51:09.830Z,98.68
2023-04-06T04:53:58.019Z,98.66
2023-04-06T04:56:30.669Z,98.82
2023-04-06T04:59:06.890Z,98.91
2023-04-06T05:01:51.792Z,99.23
2023-04-06T05:04:24.047Z,99.34
2023-04-06T05:07:05.436Z,99.25
2023-04-06T05:09:35.750Z,99.28
2023-04-06T05:12:03.708Z,99.50
2023-04-06T05:14:37.172Z,99.93
2023-04-06T05:17:08.280Z,100.00
2023-04-06T05:19:38.175Z,100.00
2023-04-06T05:22:08.358Z,100.00
2023-04-06T05:24:42.610Z,100.00
2023-04-06T05:27:10.780Z,100.00
2023-04-06T05:29:40.921Z,100.00
2023-04-06T05:32:08.808Z,100.00
2023-04-06T05:34:37.343Z,100.00
2023-04-06T05:37:07.185Z,100.00
2023-04-06T05:39:35.067Z,100.00
2023-04-06T05:42:06.806Z,100.00
2023-04-06T05:44:53.393Z,100.00
2023-04-06T05:47:22.588Z,100.00
2023-04-06T05:50:02.067Z,100.00
2023-04-06T05:52:43.883Z,100.00
2023-04-06T05:55:13.359Z,100.00
2023-04-06T05:57:45.523Z,100.00
2023-04-06T06:00:17.031Z,100.00
2023-04-06T06:02:56.937Z,100.00
2023-04-06T06:05:28.858Z,100.00
2023-04-06T06:07:59.202Z,100.00
2023-04-06T06:10:26.835Z,100.00
2023-04-06T06:12:55.913Z,100.00
2023-04-06T06:15:23.885Z,100.00
2023-04-06T06:17:51.522Z,100.00
2023-04-06T06:20:19.483Z,100.00
2023-04-06T06:22:47.427Z,100.00
2023-04-06T06:25:18.871Z,100.00
2023-04-06T06:27:48.346Z,100.00
2023-04-06T06:30:22.924Z,100.00
2023-04-06T06:32:52.944Z,100.00
2023-04-06T06:35:21.319Z,100.00
2023-04-06T06:37:49.745Z,100.00
2023-04-06T06:40:23.072Z,100.00
2023-04-06T06:42:50.774Z,100.00
2023-04-06T06:45:34.808Z,100.00
2023-04-06T06:48:02.722Z,100.00
2023-04-06T06:50:30.399Z,100.00
2023-04-06T06:52:58.027Z,100.00
2023-04-06T06:55:26.496Z,100.00
2023-04-06T06:57:54.250Z,100.00
2023-04-06T07:00:22.429Z,100.00
2023-04-06T07:02:52.445Z,100.00
2023-04-06T07:05:28.060Z,100.00
2023-04-06T07:07:58.405Z,100.00
2023-04-06T07:10:27.504Z,100.00
2023-04-06T07:12:55.206Z,100.00
2023-04-06T07:15:23.127Z,100.00
2023-04-06T07:17:53.594Z,100.00
2023-04-06T07:20:21.291Z,100.00
2023-04-06T07:22:49.335Z,100.00
2023-04-06T07:25:16.965Z,100.00
2023-04-06T07:27:44.650Z,100.00
2023-04-06T07:30:13.347Z,99.96
2023-04-06T07:32:41.181Z,99.24
2023-04-06T07:35:10.966Z,98.92
2023-04-06T07:37:38.756Z,98.82
2023-04-06T07:40:08.098Z,98.42
2023-04-06T07:42:36.110Z,98.41
2023-04-06T07:45:06.985Z,97.93
2023-04-06T07:47:34.645Z,97.58
2023-04-06T07:50:03.255Z,96.43
2023-04-06T07:52:33.577Z,95.73
2023-04-06T07:55:02.013Z,95.75
2023-04-06T07:57:29.804Z,94.80
2023-04-06T07:59:57.507Z,94.70
2023-04-06T08:02:25.405Z,94.87
2023-04-06T08:04:53.308Z,94.89
2023-04-06T08:07:21.607Z,95.23
2023-04-06T08:09:51.735Z,94.89
2023-04-06T08:12:22.499Z,95.26
2023-04-06T08:14:50.309Z,94.77
2023-04-06T08:17:32.559Z,93.83
2023-04-06T08:20:00.550Z,93.31
2023-04-06T08:22:28.440Z,92.67
2023-04-06T08:24:57.615Z,91.77
2023-04-06T08:27:25.241Z,89.84
2023-04-06T08:29:54.561Z,88.72
2023-04-06T08:32:24.208Z,88.26
2023-04-06T08:34:57.087Z,87.19
2023-04-06T08:37:26.996Z,85.41
2023-04-06T08:39:54.977Z,83.74
2023-04-06T08:42:27.841Z,82.73
2023-04-06T08:44:57.071Z,81.82
2023-04-06T08:47:26.160Z,81.74
2023-04-06T08:49:58.694Z,79.85
2023-04-06T08:52:36.034Z,78.86
2023-04-06T08:55:14.255Z,78.15
2023-04-06T08:57:44.140Z,77.33
2023-04-06T09:00:13.396Z,76.66
2023-04-06T09:02:42.334Z,74.56
2023-04-06T09:05:12.634Z,72.30
2023-04-06T09:07:42.117Z,71.27
2023-04-06T09:10:10.624Z,72.91
2023-04-06T09:12:38.326Z,70.97
2023-04-06T09:15:19.164Z,70.74
2023-04-06T09:17:47.399Z,70.60
2023-04-06T09:20:15.541Z,68.10
2023-04-06T09:22:43.615Z,64.07
2023-04-06T09:25:11.881Z,62.80
2023-04-06T09:27:40.180Z,63.81
2023-04-06T09:30:14.887Z,61.51
2023-04-06T09:32:48.257Z,62.35
2023-04-06T09:35:17.037Z,61.94
2023-04-06T09:37:46.941Z,61.84
2023-04-06T09:40:18.546Z,62.27
2023-04-06T09:42:48.316Z,60.98
2023-04-06T09:45:17.761Z,61.80
2023-04-06T09:47:47.556Z,60.25
2023-04-06T09:50:17.345Z,57.95
2023-04-06T09:52:50.402Z,59.86
2023-04-06T09:55:27.971Z,59.58
2023-04-06T09:58:04.097Z,59.42
2023-04-06T10:00:36.757Z,57.47
2023-04-06T10:03:12.815Z,55.64
2023-04-06T10:05:47.559Z,55.68
2023-04-06T10:08:16.039Z,53.87
2023-04-06T10:10:44.522Z,53.96
2023-04-06T10:13:13.926Z,54.98
2023-04-06T10:15:44.840Z,52.75
2023-04-06T10:18:13.397Z,52.18
2023-04-06T10:20:44.676Z,50.83
2023-04-06T10:23:18.832Z,49.78
2023-04-06T10:25:55.820Z,49.87
2023-04-06T10:28:25.917Z,49.01
2023-04-06T10:31:02.108Z,49.27
2023-04-06T10:33:30.400Z,47.43
2023-04-06T10:35:58.288Z,48.75
2023-04-06T10:38:37.054Z,48.99
2023-04-06T10:41:07.502Z,47.83
2023-04-06T10:43:37.114Z,43.90
2023-04-06T10:46:07.852Z,43.87
2023-04-06T10:48:41.132Z,44.59
2023-04-06T10:51:14.201Z,42.49
2023-04-06T10:53:44.664Z,41.17
2023-04-06T10:56:13.806Z,42.05
2023-04-06T10:58:46.735Z,41.68
2023-04-06T11:01:17.005Z,42.03
2023-04-06T11:03:46.043Z,41.72
2023-04-06T11:06:20.171Z,41.37
2023-04-06T11:08:47.963Z,41.51
2023-04-06T11:11:19.072Z,40.75
2023-04-06T11:13:48.085Z,41.82
2023-04-06T11:16:18.963Z,42.38
2023-04-06T11:18:52.622Z,41.66
2023-04-06T11:21:21.669Z,41.67
2023-04-06T11:23:50.361Z,40.82
2023-04-06T11:26:18.824Z,40.74
2023-04-06T11:28:47.621Z,40.04
2023-04-06T11:31:16.865Z,38.94
2023-04-06T11:33:44.636Z,39.88
2023-04-06T11:36:13.140Z,38.23
2023-04-06T11:38:42.693Z,39.20
2023-04-06T11:41:10.441Z,38.32
2023-04-06T11:43:38.350Z,37.21
2023-04-06T11:46:07.800Z,36.76
2023-04-06T11:48:46.546Z,37.90
2023-04-06T11:51:14.665Z,37.41
2023-04-06T11:53:46.375Z,36.90
2023-04-06T11:56:25.056Z,38.11
2023-04-06T11:58:52.834Z,35.93
2023-04-06T12:01:20.653Z,35.79
2023-04-06T12:03:49.896Z,34.25
2023-04-06T12:06:17.755Z,35.07
2023-04-06T12:08:45.747Z,34.90
2023-04-06T12:11:13.729Z,34.94
2023-04-06T12:13:41.410Z,34.55
2023-04-06T12:16:09.171Z,34.99
2023-04-06T12:18:36.799Z,34.04
2023-04-06T12:21:06.497Z,34.01
2023-04-06T12:23:34.235Z,34.88
2023-04-06T12:26:02.956Z,34.22
2023-04-06T12:28:31.173Z,33.31
2023-04-06T12:30:58.898Z,33.18
2023-04-06T12:33:26.731Z,33.57
2023-04-06T12:35:54.545Z,33.70
2023-04-06T12:38:23.606Z,33.76
2023-04-06T12:40:51.682Z,33.88
2023-04-06T12:43:20.004Z,33.84
2023-04-06T12:45:48.703Z,33.90
2023-04-06T12:48:16.796Z,32.92
2023-04-06T12:50:45.417Z,31.52
2023-04-06T12:53:13.627Z,31.57
2023-04-06T12:55:42.660Z,32.35
2023-04-06T12:58:10.363Z,32.00
2023-04-06T13:00:38.109Z,32.02
2023-04-06T13:03:05.914Z,32.51
2023-04-06T13:05:33.788Z,32.53
2023-04-06T13:08:01.450Z,33.18
2023-04-06T13:10:29.105Z,32.65
2023-04-06T13:12:58.052Z,32.90
2023-04-06T13:15:25.737Z,32.16
2023-04-06T13:17:54.391Z,31.14
2023-04-06T13:20:25.496Z,31.00
2023-04-06T13:22:53.179Z,31.17
2023-04-06T13:25:21.119Z,31.20
2023-04-06T13:27:49.693Z,31.63
2023-04-06T13:30:19.293Z,31.41
2023-04-06T13:32:47.038Z,31.08
2023-04-06T13:35:15.204Z,29.64
2023-04-06T13:37:42.953Z,30.44
2023-04-06T13:40:11.643Z,30.09
2023-04-06T13:42:41.711Z,30.17
2023-04-06T13:45:10.500Z,29.01
2023-04-06T13:47:39.666Z,30.13
2023-04-06T13:50:08.739Z,30.62
2023-04-06T13:52:37.396Z,29.93
2023-04-06T13:55:05.693Z,30.07
2023-04-06T13:57:33.325Z,29.45
2023-04-06T14:00:01.568Z,28.87
2023-04-06T14:02:32.516Z,29.82
2023-04-06T14:05:01.539Z,30.39
2023-04-06T14:07:29.178Z,30.94
2023-04-06T14:09:57.109Z,31.20
2023-04-06T14:12:24.944Z,30.74
2023-04-06T14:14:52.719Z,30.89
2023-04-06T14:17:20.646Z,31.03
2023-04-06T14:19:48.447Z,30.10
2023-04-06T14:22:17.521Z,29.12
2023-04-06T14:24:46.079Z,29.91
2023-04-06T14:27:13.695Z,30.38
2023-04-06T14:29:41.361Z,29.88
2023-04-06T14:32:08.976Z,29.83
2023-04-06T14:34:39.181Z,30.07
2023-04-06T14:37:07.325Z,29.94
2023-04-06T14:39:36.375Z,29.70
2023-04-06T14:42:04.023Z,29.85
2023-04-06T14:44:31.711Z,29.62
2023-04-06T14:46:59.325Z,30.02
2023-04-06T14:49:27.204Z,29.31
2023-04-06T14:51:54.877Z,29.55
2023-04-06T14:54:22.707Z,30.35
2023-04-06T14:56:51.726Z,30.67
2023-04-06T14:59:19.375Z,31.43
2023-04-06T15:01:47.234Z,32.29
2023-04-06T15:04:15.365Z,31.73
2023-04-06T15:06:43.101Z,29.72
2023-04-06T15:09:10.745Z,28.89
2023-04-06T15:11:38.740Z,29.66
2023-04-06T15:14:08.104Z,29.04
2023-04-06T15:16:35.955Z,30.42
2023-04-06T15:19:03.692Z,29.69
2023-04-06T15:21:32.145Z,29.49
2023-04-06T15:23:59.894Z,30.21
2023-04-06T15:26:27.706Z,31.22
2023-04-06T15:28:55.416Z,31.39
2023-04-06T15:31:36.928Z,31.25
2023-04-06T15:34:06.538Z,32.10
2023-04-06T15:36:35.137Z,33.25
2023-04-06T15:39:04.100Z,31.60
2023-04-06T15:41:32.141Z,32.07
2023-04-06T15:43:59.837Z,32.56
2023-04-06T15:46:29.184Z,32.27
2023-04-06T15:48:57.114Z,31.81
2023-04-06T15:51:26.206Z,32.26
2023-04-06T15:53:53.915Z,32.33
2023-04-06T15:56:21.582Z,33.37
2023-04-06T15:58:49.382Z,32.84
2023-04-06T16:01:19.134Z,33.93
2023-04-06T16:03:48.381Z,34.41
2023-04-06T16:06:16.077Z,34.03
2023-04-06T16:08:44.251Z,34.51
2023-04-06T16:11:12.208Z,34.48
2023-04-06T16:13:40.422Z,34.05
2023-04-06T16:16:10.088Z,34.61
2023-04-06T16:18:37.776Z,34.46
2023-04-06T16:21:06.825Z,34.10
2023-04-06T16:23:34.690Z,34.43
2023-04-06T16:26:02.427Z,34.96
2023-04-06T16:28:30.115Z,34.51
2023-04-06T16:30:58.093Z,34.60
2023-04-06T16:33:25.783Z,35.17
2023-04-06T16:35:53.409Z,35.59
2023-04-06T16:38:23.988Z,35.33
2023-04-06T16:41:01.004Z,35.77
2023-04-06T16:43:28.801Z,35.94
2023-04-06T16:45:56.545Z,36.13
2023-04-06T16:48:24.448Z,36.54
2023-04-06T16:50:52.503Z,36.86
2023-04-06T16:53:20.403Z,37.21
2023-04-06T16:55:49.372Z,37.00
2023-04-06T16:58:17.025Z,37.09
2023-04-06T17:00:45.316Z,37.67
2023-04-06T17:03:13.251Z,37.91
2023-04-06T17:05:41.119Z,38.41
2023-04-06T17:08:09.005Z,38.75
2023-04-06T17:10:46.907Z,38.62
2023-04-06T17:13:25.654Z,39.38
2023-04-06T17:15:53.434Z,40.07
2023-04-06T17:18:21.173Z,40.66
2023-04-06T17:20:49.382Z,40.72
2023-04-06T17:23:17.224Z,41.14
2023-04-06T17:25:44.863Z,41.37
2023-04-06T17:28:12.505Z,41.43
2023-04-06T17:30:42.722Z,42.10
2023-04-06T17:33:10.587Z,41.93
2023-04-06T17:35:38.281Z,42.69
2023-04-06T17:38:06.735Z,43.09
2023-04-06T17:40:35.564Z,43.26
2023-04-06T17:43:03.435Z,43.70
2023-04-06T17:45:31.143Z,44.02
2023-04-06T17:48:00.408Z,44.57
2023-04-06T17:50:28.077Z,44.21
2023-04-06T17:52:55.712Z,44.71
2023-04-06T17:55:23.425Z,44.81
2023-04-06T17:57:51.406Z,45.45
2023-04-06T18:00:24.231Z,46.16
2023-04-06T18:02:53.436Z,46.65
2023-04-06T18:05:23.221Z,46.48
2023-04-06T18:07:52.607Z,47.12
2023-04-06T18:10:20.375Z,47.26
2023-04-06T18:12:48.035Z,47.47
2023-04-06T18:15:16.756Z,48.16
2023-04-06T18:17:44.536Z,47.98
2023-04-06T18:20:14.265Z,48.36
2023-04-06T18:22:44.692Z,48.74
2023-04-06T18:25:13.523Z,48.74
2023-04-06T18:27:41.180Z,49.07
2023-04-06T18:30:09.798Z,49.26
2023-04-06T18:32:38.032Z,49.52
2023-04-06T18:35:09.701Z,49.85
2023-04-06T18:37:37.942Z,49.80
2023-04-06T18:40:09.170Z,50.33
2023-04-06T18:42:38.211Z,50.92
2023-04-06T18:45:07.676Z,51.06
2023-04-06T18:47:35.341Z,51.34
2023-04-06T18:50:03.463Z,51.89
2023-04-06T18:52:32.381Z,52.16
2023-04-06T18:55:00.111Z,52.11
2023-04-06T18:57:30.539Z,51.96
2023-04-06T19:00:01.265Z,52.41
2023-04-06T19:02:30.737Z,52.38
2023-04-06T19:05:02.177Z,52.19
2023-04-06T19:07:36.832Z,52.15
2023-04-06T19:10:10.398Z,52.10
2023-04-06T19:13:05.873Z,52.73
2023-04-06T19:15:37.176Z,53.14
2023-04-06T19:18:07.004Z,53.29
2023-04-06T19:20:37.554Z,53.15
2023-04-06T19:23:06.483Z,53.60
2023-04-06T19:25:36.494Z,53.99
2023-04-06T19:28:08.946Z,54.61
2023-04-06T19:30:36.652Z,54.93
2023-04-06T19:33:04.903Z,55.08
2023-04-06T19:35:33.206Z,55.52
2023-04-06T19:38:01.259Z,55.45
2023-04-06T19:40:29.122Z,55.81
2023-04-06T19:42:58.415Z,56.24
2023-04-06T19:45:33.047Z,56.09
2023-04-06T19:48:00.809Z,56.21
2023-04-06T19:50:28.529Z,56.48
2023-04-06T19:52:56.258Z,56.56
2023-04-06T19:55:23.919Z,57.45
2023-04-06T19:57:51.579Z,57.14
2023-04-06T20:00:20.374Z,57.41
2023-04-06T20:02:50.104Z,57.17
2023-04-06T20:05:18.004Z,57.31
2023-04-06T20:07:46.202Z,56.85
2023-04-06T20:10:14.717Z,57.62
2023-04-06T20:12:42.700Z,57.22
2023-04-06T20:15:10.920Z,57.71
2023-04-06T20:17:40.399Z,57.61
2023-04-06T20:20:12.094Z,58.17
2023-04-06T20:22:46.368Z,57.93
2023-04-06T20:25:14.410Z,58.31
2023-04-06T20:27:42.137Z,58.74
2023-04-06T20:30:12.194Z,58.66
2023-04-06T20:32:39.889Z,58.85
2023-04-06T20:35:09.831Z,58.70
2023-04-06T20:37:38.713Z,59.29
2023-04-06T20:40:08.178Z,59.60
2023-04-06T20:42:39.255Z,59.77
2023-04-06T20:45:08.087Z,60.51
2023-04-06T20:47:35.831Z,60.96
2023-04-06T20:50:03.949Z,60.85
2023-04-06T20:52:32.966Z,61.94
2023-04-06T20:55:01.323Z,62.33
2023-04-06T20:57:29.323Z,62.74
2023-04-06T20:59:56.988Z,62.81
2023-04-06T21:02:24.819Z,62.73
2023-04-06T21:04:52.557Z,62.79
2023-04-06T21:07:20.310Z,63.19
2023-04-06T21:09:49.258Z,63.53
2023-04-06T21:12:17.004Z,63.53
2023-04-06T21:14:44.782Z,63.80
2023-04-06T21:17:12.573Z,63.92
2023-04-06T21:19:40.163Z,64.59
2023-04-06T21:22:07.827Z,64.09
2023-04-06T21:24:35.809Z,63.98
2023-04-06T21:27:04.932Z,64.78
2023-04-06T21:29:33.193Z,65.58
2023-04-06T21:32:00.981Z,65.15
2023-04-06T21:34:28.651Z,65.34
2023-04-06T21:36:56.346Z,66.07
2023-04-06T21:39:25.330Z,66.42
2023-04-06T21:41:52.962Z,66.80
2023-04-06T21:44:21.917Z,67.40
2023-04-06T21:46:49.734Z,68.08
2023-04-06T21:49:17.342Z,67.64
2023-04-06T21:51:45.009Z,68.08
2023-04-06T21:54:12.766Z,68.28
2023-04-06T21:56:40.858Z,68.81
2023-04-06T21:59:08.527Z,68.99
2023-04-06T22:01:37.749Z,69.41
2023-04-06T22:04:05.853Z,69.28
2023-04-06T22:06:33.673Z,70.13
2023-04-06T22:09:01.960Z,69.97
2023-04-06T22:11:29.642Z,70.26
2023-04-06T22:13:57.276Z,69.94
2023-04-06T22:16:24.986Z,70.45
2023-04-06T22:18:54.034Z,71.21
2023-04-06T22:21:21.682Z,71.51
2023-04-06T22:23:49.317Z,72.53
2023-04-06T22:26:17.101Z,72.75
2023-04-06T22:28:44.728Z,73.20
2023-04-06T22:31:12.700Z,73.64
2023-04-06T22:33:40.301Z,73.51
2023-04-06T22:36:09.853Z,73.90
2023-04-06T22:38:37.553Z,74.22
2023-04-06T22:41:06.659Z,73.84
2023-04-06T22:43:35.562Z,74.20
2023-04-06T22:46:03.178Z,74.54
2023-04-06T22:48:30.822Z,74.90
2023-04-06T22:50:58.467Z,75.59
2023-04-06T22:53:27.482Z,75.37
2023-04-06T22:55:55.156Z,75.78
2023-04-06T22:58:22.784Z,76.22
2023-04-06T23:00:50.488Z,76.11
2023-04-06T23:03:18.281Z,76.39
2023-04-06T23:05:47.595Z,76.62
2023-04-06T23:08:18.541Z,76.38
2023-04-06T23:10:47.611Z,77.25
2023-04-06T23:13:15.624Z,77.48
2023-04-06T23:15:43.991Z,78.09
2023-04-06T23:18:11.886Z,78.05
2023-04-06T23:20:40.456Z,77.67
2023-04-06T23:23:08.170Z,78.10
2023-04-06T23:25:35.998Z,77.99
2023-04-06T23:28:05.094Z,77.80
2023-04-06T23:30:32.781Z,78.17
2023-04-06T23:33:01.069Z,79.02
2023-04-06T23:35:28.990Z,78.89
2023-04-06T23:37:56.709Z,78.92
2023-04-06T23:40:25.092Z,78.93
2023-04-06T23:42:52.836Z,79.46
2023-04-06T23:45:21.951Z,79.20
2023-04-06T23:47:49.684Z,79.73
2023-04-06T23:50:17.677Z,80.14
2023-04-06T23:52:45.430Z,79.98
2023-04-06T23:55:20.794Z,80.53
2023-04-06T23:57:48.720Z,80.58
